KELP/ELP METAR and TAF weather

Enter ICAO airport designator
Station Type Date Time Source
KELP METAR 2020/07/10 00:51 UTC NOAA

KELP 100051Z 33011KT 10SM FEW140 FEW250 41/03 A2988 RMK AO2 SLP028 CB DSNT SE T04110028


Station Type Date Time Source
KELP Decoded METAR 2020/07/10 00:51 UTC NOAA

EL PASO INTERNATIONAL AIRPORT , TX, United States (KELP) 31-49N 106-23W 1197M
Jul 09, 2020 - 08:51 PM EDT / 2020.07.10 0051 UTC
Wind: from the NNW (330 degrees) at 13 MPH (11 KT):0
Visibility: 10 mile(s):0
Sky conditions: mostly clear
Weather: Cumulonimbus clouds observed
Temperature: 106.0 F (41.1 C)
Dew Point: 37.0 F (2.8 C)
Relative Humidity: 9%
Pressure (altimeter): 29.88 in. Hg (1011 hPa)
ob: KELP 100051Z 33011KT 10SM FEW140 FEW250 41/03 A2988 RMK AO2 SLP028 CB DSNT SE T04110028
cycle: 1

Station Type Date Time Source
KELP TAF 2020/07/09 18:30 UTC NOAA

TAF KELP 091729Z 0918/1018 01008KT P6SM FEW250
FM101700 07006KT P6SM SKC

Example: see airport list